Time;durP1;ratioP1;P1;durP2;ratioP2;P2;SDS_P1;SDS_P2;PMS_P1;PMS_P2;Temp;Humidity;BMP_temperature;BMP_pressure;BME280_temperature;BME280_humidity;BME280_pressure;Samples;Min_cycle;Max_cycle;Signal;HPM_P1;HPM_P2
2022/06/27 00:00:39;;;;;;;;;;;;;;;20.32;65.17;100800.88;4965477;28;3032;-92
2022/06/27 00:03:05;;;;;;;;;;;;;;;20.33;64.96;100807.19;4961915;28;2503;-93
2022/06/27 00:05:31;;;;;;;;;;;;;;;20.32;64.96;100800.88;4965713;28;2395;-93
2022/06/27 00:07:58;;;;;;;;;;;;;;;20.32;64.88;100805.53;4977207;28;3047;-94
2022/06/27 00:10:24;;;;;;;;;;;;;;;20.29;65.17;100795.97;4964013;28;2419;-93
2022/06/27 00:12:51;;;;;;;;;;;;;;;20.30;64.83;100792.16;4962413;28;3115;-94
2022/06/27 00:15:17;;;;;;;;;;;;;;;20.28;64.87;100788.88;4961112;28;4122;-93
2022/06/27 00:17:44;;;;;;;;;;;;;;;20.28;64.88;100788.06;4965331;28;2157;-93
2022/06/27 00:20:10;;;;;;;;;;;;;;;20.27;64.84;100789.16;4965701;28;2795;-93
2022/06/27 00:22:36;;;;;;;;;;;;;;;20.27;64.81;100798.19;4965393;28;2186;-92
2022/06/27 00:25:03;;;;;;;;;;;;;;;20.26;64.87;100793.78;4967825;28;3079;-94
2022/06/27 00:27:29;;;;;;;;;;;;;;;20.25;64.86;100794.09;4966518;28;2482;-92
2022/06/27 00:29:55;;;;;;;;;;;;;;;20.24;64.97;100798.75;4978076;28;2354;-93
2022/06/27 00:32:23;;;;;;;;;;;;;;;20.23;64.87;100799.81;4969452;28;2992;-93
2022/06/27 00:34:49;;;;;;;;;;;;;;;20.22;65.22;100800.94;4968102;28;2118;-93
2022/06/27 00:37:16;;;;;;;;;;;;;;;20.22;65.05;100805.59;4968416;28;2137;-93
2022/06/27 00:39:42;;;;;;;;;;;;;;;20.22;64.87;100805.59;4971923;28;2109;-93
2022/06/27 00:42:08;;;;;;;;;;;;;;;20.20;64.89;100808.59;4966817;28;3114;-93
2022/06/27 00:44:35;;;;;;;;;;;;;;;20.20;64.88;100794.91;4969613;28;3028;-93
2022/06/27 00:47:01;;;;;;;;;;;;;;;20.19;64.70;100802.31;4965355;28;2189;-93
2022/06/27 00:49:28;;;;;;;;;;;;;;;20.18;64.83;100803.41;4983861;28;2315;-94
2022/06/27 00:51:54;;;;;;;;;;;;;;;20.18;64.80;100797.94;4971159;28;2205;-93
2022/06/27 00:54:21;;;;;;;;;;;;;;;20.16;64.90;100789.19;4964742;28;3112;-93
2022/06/27 00:56:48;;;;;;;;;;;;;;;20.16;64.65;100799.31;4974098;28;2955;-93
2022/06/27 00:59:14;;;;;;;;;;;;;;;20.15;64.62;100795.75;4966674;28;2538;-93
2022/06/27 01:01:41;;;;;;;;;;;;;;;20.14;64.85;100802.31;4964938;28;3083;-93
2022/06/27 01:04:07;;;;;;;;;;;;;;;20.13;64.64;100810.81;4966304;28;2478;-93
2022/06/27 01:06:33;;;;;;;;;;;;;;;20.13;64.76;100814.34;4969810;28;2834;-93
2022/06/27 01:09:00;;;;;;;;;;;;;;;20.11;64.78;100808.34;4966421;28;2153;-94
2022/06/27 01:11:26;;;;;;;;;;;;;;;20.11;64.62;100811.06;4967629;28;3151;-93
2022/06/27 01:13:52;;;;;;;;;;;;;;;20.10;64.93;100808.63;4981942;28;2856;-93
2022/06/27 01:16:19;;;;;;;;;;;;;;;20.09;64.70;100805.09;4967274;28;2175;-93
2022/06/27 01:18:45;;;;;;;;;;;;;;;20.09;64.59;100801.50;4971923;28;3147;-93
2022/06/27 01:21:12;;;;;;;;;;;;;;;20.08;64.59;100814.34;4969845;28;2478;-94
2022/06/27 01:23:38;;;;;;;;;;;;;;;20.06;64.84;100816.56;4963784;28;3072;-93
2022/06/27 01:26:05;;;;;;;;;;;;;;;20.06;64.71;100824.78;4980787;28;2183;-94
2022/06/27 01:28:31;;;;;;;;;;;;;;;20.06;64.76;100805.63;4979940;28;2193;-94
2022/06/27 01:30:58;;;;;;;;;;;;;;;20.05;64.93;100819.56;4963143;28;2989;-93
2022/06/27 01:33:24;;;;;;;;;;;;;;;20.04;64.83;100826.13;4968447;28;2177;-93
2022/06/27 01:36:41;;;;;;;;;;;;;;;20.03;64.64;100839.00;4965354;28;3089;-93
2022/06/27 01:38:37;;;;;;;;;;;;;;;20.03;64.88;100843.63;4965712;28;3117;-93
2022/06/27 01:41:03;;;;;;;;;;;;;;;20.01;64.87;100834.91;4967975;28;2239;-93
2022/06/27 01:43:29;;;;;;;;;;;;;;;20.00;64.88;100833.22;4968918;28;3119;-94
2022/06/27 01:45:56;;;;;;;;;;;;;;;20.00;64.96;100822.31;4969253;28;2364;-94
2022/06/27 01:48:22;;;;;;;;;;;;;;;19.98;64.55;100814.38;4964227;28;3111;-94
2022/06/27 01:50:48;;;;;;;;;;;;;;;19.97;64.50;100820.94;4965377;28;2150;-94
2022/06/27 01:53:15;;;;;;;;;;;;;;;19.97;64.84;100823.66;4968849;28;2191;-94
2022/06/27 01:55:41;;;;;;;;;;;;;;;19.95;64.87;100809.47;4965126;28;2182;-94
2022/06/27 01:58:07;;;;;;;;;;;;;;;19.94;64.47;100814.13;4967899;28;2173;-93
2022/06/27 02:00:34;;;;;;;;;;;;;;;19.94;64.85;100832.41;4965305;28;3138;-94
2022/06/27 02:03:00;;;;;;;;;;;;;;;19.93;64.62;100842.53;4967744;28;2194;-94
2022/06/27 02:05:27;;;;;;;;;;;;;;;19.91;64.64;100838.44;4964880;28;2979;-93
2022/06/27 02:07:53;;;;;;;;;;;;;;;19.92;64.80;100851.03;4968090;28;3011;-93
2022/06/27 02:10:20;;;;;;;;;;;;;;;19.90;64.63;100848.56;4968405;28;2249;-93
2022/06/27 02:12:46;;;;;;;;;;;;;;;19.89;64.74;100846.13;4966795;28;3068;-93
2022/06/27 02:15:14;;;;;;;;;;;;;;;19.88;64.55;100842.56;4973222;28;2353;-93
2022/06/27 02:17:41;;;;;;;;;;;;;;;19.88;64.66;100844.44;4966678;28;3088;-93
2022/06/27 02:20:07;;;;;;;;;;;;;;;19.86;64.50;100839.28;4969866;28;2107;-94
2022/06/27 02:22:34;;;;;;;;;;;;;;;19.86;64.82;100843.94;4969267;28;3004;-93
2022/06/27 02:25:00;;;;;;;;;;;;;;;19.86;64.73;100846.66;4984931;28;2365;-93
2022/06/27 02:27:27;;;;;;;;;;;;;;;19.86;64.70;100852.13;4986055;28;2279;-94
2022/06/27 02:29:53;;;;;;;;;;;;;;;19.85;64.50;100851.28;4967133;28;3190;-93
2022/06/27 02:32:19;;;;;;;;;;;;;;;19.85;64.38;100850.47;4970308;28;2202;-93
2022/06/27 02:34:46;;;;;;;;;;;;;;;19.83;64.74;100856.22;4966635;28;3252;-93
2022/06/27 02:37:12;;;;;;;;;;;;;;;19.84;64.70;100866.06;4969733;28;3079;-93
2022/06/27 02:39:39;;;;;;;;;;;;;;;19.84;64.62;100865.25;4971250;28;2396;-94
2022/06/27 02:42:06;;;;;;;;;;;;;;;19.83;64.63;100863.63;4969596;28;2475;-94
2022/06/27 02:44:32;;;;;;;;;;;;;;;19.83;64.63;100860.88;4973579;28;2142;-95
2022/06/27 02:46:59;;;;;;;;;;;;;;;19.80;64.49;100848.56;4969331;28;3072;-94
2022/06/27 02:49:25;;;;;;;;;;;;;;;19.82;64.62;100845.56;4971541;28;2991;-92
2022/06/27 02:51:51;;;;;;;;;;;;;;;19.80;64.33;100840.38;4971703;28;2240;-94
2022/06/27 02:54:18;;;;;;;;;;;;;;;19.80;64.50;100831.38;4978222;28;3299;-94
2022/06/27 02:56:44;;;;;;;;;;;;;;;19.78;64.25;100828.91;4979730;28;1618;-94
2022/06/27 02:59:11;;;;;;;;;;;;;;;19.79;64.58;100837.91;4969858;28;2961;-93
2022/06/27 03:01:37;;;;;;;;;;;;;;;19.78;64.57;100839.81;4971177;28;1547;-94
2022/06/27 03:04:03;;;;;;;;;;;;;;;19.77;64.23;100832.72;4977319;28;3146;-93
2022/06/27 03:06:30;;;;;;;;;;;;;;;19.76;64.48;100825.59;4978568;28;3182;-93
2022/06/27 03:08:56;;;;;;;;;;;;;;;19.74;64.45;100828.63;4978861;28;3567;-94
2022/06/27 03:11:22;;;;;;;;;;;;;;;19.75;64.38;100840.38;4974819;28;3275;-94
2022/06/27 03:13:49;;;;;;;;;;;;;;;19.75;64.26;100854.03;4979925;28;1532;-93
2022/06/27 03:16:16;;;;;;;;;;;;;;;19.74;64.37;100847.75;4975720;28;3295;-94
2022/06/27 03:18:42;;;;;;;;;;;;;;;19.74;64.14;100850.50;4978441;28;3118;-93
2022/06/27 03:21:09;;;;;;;;;;;;;;;19.72;64.48;100840.91;4973556;28;3562;-94
2022/06/27 03:23:35;;;;;;;;;;;;;;;19.72;64.57;100838.19;4969459;28;2926;-94
2022/06/27 03:26:01;;;;;;;;;;;;;;;19.70;64.22;100841.19;4960558;28;2264;-94
2022/06/27 03:28:28;;;;;;;;;;;;;;;19.69;64.28;100847.75;4969643;28;3117;-94
2022/06/27 03:30:54;;;;;;;;;;;;;;;19.69;64.49;100847.75;4970835;28;2333;-93
2022/06/27 03:33:21;;;;;;;;;;;;;;;19.69;64.20;100842.28;4967710;28;3262;-94
2022/06/27 03:35:47;;;;;;;;;;;;;;;19.69;64.25;100855.13;4967536;28;3063;-94
2022/06/27 03:38:13;;;;;;;;;;;;;;;19.69;64.33;100864.16;4974784;28;2173;-93
2022/06/27 03:40:40;;;;;;;;;;;;;;;19.69;64.45;100863.31;4966765;28;3211;-94
2022/06/27 03:43:06;;;;;;;;;;;;;;;19.67;64.18;100870.97;4971051;28;2144;-94
2022/06/27 03:45:33;;;;;;;;;;;;;;;19.67;64.46;100866.31;4965175;28;3210;-94
2022/06/27 03:47:59;;;;;;;;;;;;;;;19.66;64.14;100847.47;4969487;28;3261;-93
2022/06/27 03:50:24;;;;;;;;;;;;;;;19.65;64.28;100852.13;4971492;28;3615;-93
2022/06/27 03:52:51;;;;;;;;;;;;;;;19.65;64.14;100846.66;4992628;28;3154;-94
2022/06/27 03:55:17;;;;;;;;;;;;;;;19.64;64.02;100849.63;4979682;28;3566;-94
2022/06/27 03:57:43;;;;;;;;;;;;;;;19.63;64.33;100848.00;4976189;28;3369;-94
2022/06/27 04:00:10;;;;;;;;;;;;;;;19.62;64.40;100830.78;4988304;28;3565;-93
2022/06/27 04:02:36;;;;;;;;;;;;;;;19.62;64.40;100835.41;4975742;28;3357;-94
2022/06/27 04:05:02;;;;;;;;;;;;;;;19.62;64.12;100838.16;4979952;28;1290;-93
2022/06/27 04:07:29;;;;;;;;;;;;;;;19.61;64.17;100829.13;4975223;28;3355;-94
2022/06/27 04:09:56;;;;;;;;;;;;;;;19.61;64.20;100834.59;4978839;28;2231;-93
2022/06/27 04:12:22;;;;;;;;;;;;;;;19.60;64.49;100843.91;4973483;28;3227;-93
2022/06/27 04:14:48;;;;;;;;;;;;;;;19.61;64.09;100841.97;4977577;28;3275;-93
2022/06/27 04:17:15;;;;;;;;;;;;;;;19.59;64.38;100850.47;4977303;28;3540;-94
2022/06/27 04:19:41;;;;;;;;;;;;;;;19.58;64.03;100853.44;4975130;28;3294;-93
2022/06/27 04:22:08;;;;;;;;;;;;;;;19.59;64.13;100846.88;4979227;28;1165;-94
2022/06/27 04:24:35;;;;;;;;;;;;;;;19.60;64.42;100856.75;4969266;28;3290;-94
2022/06/27 04:27:01;;;;;;;;;;;;;;;19.57;64.30;100852.63;4976329;28;3114;-94
2022/06/27 04:29:28;;;;;;;;;;;;;;;19.57;63.98;100841.72;4966498;28;3598;-94
2022/06/27 04:31:55;;;;;;;;;;;;;;;19.56;64.18;100840.09;4974217;28;3176;-94
2022/06/27 04:34:21;;;;;;;;;;;;;;;19.56;64.15;100839.25;4978399;28;1252;-94
2022/06/27 04:36:47;;;;;;;;;;;;;;;19.56;64.12;100847.44;4968372;28;3251;-94
2022/06/27 04:39:15;;;;;;;;;;;;;;;19.57;64.36;100862.75;4978785;28;1991;-94
2022/06/27 04:41:42;;;;;;;;;;;;;;;19.55;64.20;100854.00;4974437;28;3296;-94
2022/06/27 04:44:09;;;;;;;;;;;;;;;19.54;64.22;100853.19;4993730;28;3243;-94
2022/06/27 04:46:35;;;;;;;;;;;;;;;19.56;63.96;100851.00;4970939;28;3726;-93
2022/06/27 04:49:02;;;;;;;;;;;;;;;19.54;64.18;100846.91;4973831;28;3275;-94
2022/06/27 04:51:29;;;;;;;;;;;;;;;19.54;64.29;100861.38;4978543;28;1265;-93
2022/06/27 04:53:56;;;;;;;;;;;;;;;19.54;64.41;100875.03;4975499;28;3329;-93
2022/06/27 04:56:22;;;;;;;;;;;;;;;19.53;64.28;100876.13;4985254;28;3000;-93
2022/06/27 04:58:49;;;;;;;;;;;;;;;19.54;64.25;100871.50;4975751;28;2180;-93
2022/06/27 05:01:15;;;;;;;;;;;;;;;19.53;64.22;100862.47;4975947;28;2985;-94
2022/06/27 05:03:42;;;;;;;;;;;;;;;19.52;63.97;100856.16;4995516;28;1239;-94
2022/06/27 05:06:08;;;;;;;;;;;;;;;19.50;64.27;100858.38;4969196;28;3238;-93
2022/06/27 05:08:37;;;;;;;;;;;;;;;19.51;64.07;100851.00;4969811;28;3053;-93
2022/06/27 05:11:07;;;;;;;;;;;;;;;19.50;63.97;100854.81;4980094;28;2201;-94
2022/06/27 05:13:33;;;;;;;;;;;;;;;19.51;64.20;100861.94;4964896;28;3158;-94
2022/06/27 05:15:59;;;;;;;;;;;;;;;19.51;64.16;100867.38;4970594;28;2106;-93
2022/06/27 05:18:26;;;;;;;;;;;;;;;19.50;64.31;100855.66;4966052;28;3186;-94
2022/06/27 05:20:52;;;;;;;;;;;;;;;19.50;64.35;100868.47;4968654;28;2357;-93
2022/06/27 05:23:18;;;;;;;;;;;;;;;19.50;63.92;100863.00;4976099;28;1904;-94
2022/06/27 05:25:45;;;;;;;;;;;;;;;19.49;64.02;100866.81;4969497;28;3132;-94
2022/06/27 05:28:12;;;;;;;;;;;;;;;19.49;64.23;100856.72;4971572;28;1943;-94
2022/06/27 05:30:38;;;;;;;;;;;;;;;19.49;64.25;100834.06;4977319;28;2063;-92
2022/06/27 05:33:05;;;;;;;;;;;;;;;19.47;63.91;100828.88;4978669;28;1230;-92
2022/06/27 05:35:31;;;;;;;;;;;;;;;19.48;64.12;100829.69;4978074;28;1292;-91
2022/06/27 05:37:59;;;;;;;;;;;;;;;19.49;64.20;100851.25;4966879;28;1849;-93
2022/06/27 05:40:25;;;;;;;;;;;;;;;19.48;63.75;100867.94;4972416;28;1948;-93
2022/06/27 05:42:53;;;;;;;;;;;;;;;19.48;63.99;100882.41;4980309;28;1499;-94
2022/06/27 05:45:20;;;;;;;;;;;;;;;19.48;64.25;100896.06;4981056;28;1609;-94
2022/06/27 05:47:46;;;;;;;;;;;;;;;19.48;64.01;100908.91;4980643;28;2036;-93
2022/06/27 05:50:13;;;;;;;;;;;;;;;19.47;64.19;100913.56;4979273;28;1935;-94
2022/06/27 05:52:40;;;;;;;;;;;;;;;19.48;64.04;100900.72;4980834;28;2509;-94
2022/06/27 05:55:06;;;;;;;;;;;;;;;19.48;63.86;100884.31;4968952;28;3270;-93
2022/06/27 05:57:33;;;;;;;;;;;;;;;19.47;63.78;100875.31;4972540;28;3260;-94
2022/06/27 06:00:00;;;;;;;;;;;;;;;19.47;64.12;100863.53;4979697;28;3437;-93
2022/06/27 06:02:27;;;;;;;;;;;;;;;19.46;64.05;100872.84;4979328;28;1448;-94
2022/06/27 06:04:53;;;;;;;;;;;;;;;19.46;63.94;100872.84;4981434;28;1303;-93
2022/06/27 06:07:22;;;;;;;;;;;;;;;19.46;64.04;100870.09;4981296;28;2002;-93
2022/06/27 06:09:49;;;;;;;;;;;;;;;19.47;63.84;100872.56;4997483;28;1906;-93
2022/06/27 06:12:16;;;;;;;;;;;;;;;19.45;63.81;100874.75;4980039;28;1770;-94
2022/06/27 06:14:43;;;;;;;;;;;;;;;19.47;63.74;100866.28;4997664;28;1192;-93
2022/06/27 06:17:09;;;;;;;;;;;;;;;19.45;64.03;100861.09;4968027;28;1932;-93
2022/06/27 06:19:36;;;;;;;;;;;;;;;19.45;63.66;100852.91;4981393;28;1285;-93
2022/06/27 06:22:02;;;;;;;;;;;;;;;19.45;64.03;100858.38;4981294;28;1975;-94
2022/06/27 06:24:28;;;;;;;;;;;;;;;19.46;63.93;100873.66;4980093;28;1922;-93
2022/06/27 06:26:56;;;;;;;;;;;;;;;19.46;63.70;100876.38;4978754;28;2038;-93
2022/06/27 06:29:22;;;;;;;;;;;;;;;19.45;63.96;100880.22;4997013;28;1903;-93
2022/06/27 06:31:48;;;;;;;;;;;;;;;19.46;63.77;100884.56;4969292;28;2971;-93
2022/06/27 06:34:15;;;;;;;;;;;;;;;19.46;64.03;100881.03;4976223;28;2073;-93
2022/06/27 06:36:41;;;;;;;;;;;;;;;19.46;63.79;100887.31;4979383;28;1436;-93
2022/06/27 06:39:07;;;;;;;;;;;;;;;19.46;64.09;100900.16;4969524;28;2027;-93
2022/06/27 06:41:34;;;;;;;;;;;;;;;19.45;63.83;100896.59;4972450;28;1988;-94
2022/06/27 06:44:01;;;;;;;;;;;;;;;19.46;64.00;100897.41;4973320;28;2281;-94
2022/06/27 06:46:27;;;;;;;;;;;;;;;19.45;63.90;100895.78;4969087;28;2421;-93
2022/06/27 06:48:57;;;;;;;;;;;;;;;19.45;63.91;100891.13;4984777;28;2002;-94
2022/06/27 06:51:24;;;;;;;;;;;;;;;19.45;63.99;100887.59;4969139;28;2105;-94
2022/06/27 06:53:50;;;;;;;;;;;;;;;19.45;63.65;100899.34;4988861;28;3091;-94
2022/06/27 06:56:17;;;;;;;;;;;;;;;19.45;63.75;100899.34;4976982;28;3036;-93
2022/06/27 06:58:43;;;;;;;;;;;;;;;19.46;63.83;100900.16;4970587;28;3665;-94
2022/06/27 07:01:09;;;;;;;;;;;;;;;19.44;63.89;100894.97;4975390;28;3258;-94
2022/06/27 07:03:36;;;;;;;;;;;;;;;19.44;63.80;100905.91;4977934;28;1997;-93
2022/06/27 07:06:03;;;;;;;;;;;;;;;19.44;63.81;100894.13;4982432;28;1634;-94
2022/06/27 07:08:30;;;;;;;;;;;;;;;19.46;63.89;100891.94;4966516;28;2076;-94
2022/06/27 07:10:57;;;;;;;;;;;;;;;19.45;63.63;100882.94;4980435;28;1991;-93
2022/06/27 07:13:24;;;;;;;;;;;;;;;19.45;63.71;100871.22;4980004;28;1996;-93
2022/06/27 07:15:51;;;;;;;;;;;;;;;19.45;63.87;100880.22;4972623;28;2082;-94
2022/06/27 07:18:17;;;;;;;;;;;;;;;19.44;63.92;100888.66;4968961;28;2305;-94
2022/06/27 07:20:44;;;;;;;;;;;;;;;19.44;63.61;100880.47;4972813;28;2296;-94
2022/06/27 07:23:10;;;;;;;;;;;;;;;19.44;nan;100883.19;4969914;28;1944;-94
2022/06/27 07:25:37;;;;;;;;;;;;;;;19.44;63.61;100873.13;4985362;28;2058;-94
2022/06/27 07:28:04;;;;;;;;;;;;;;;19.46;63.94;100864.66;4973559;28;2289;-94
2022/06/27 07:30:30;;;;;;;;;;;;;;;19.45;63.74;100863.00;4986721;28;2264;-94
2022/06/27 07:32:56;;;;;;;;;;;;;;;19.43;63.92;100860.53;4970578;28;2368;-93
2022/06/27 07:35:24;;;;;;;;;;;;;;;19.45;63.70;100863.00;4968547;28;2025;-94
2022/06/27 07:37:51;;;;;;;;;;;;;;;19.45;64.06;100863.81;4970415;28;2068;-94
2022/06/27 07:40:18;;;;;;;;;;;;;;;19.43;63.55;100871.47;4976083;28;1973;-93
2022/06/27 07:42:44;;;;;;;;;;;;;;;19.44;63.68;100855.88;4971958;28;2300;-94
2022/06/27 07:45:13;;;;;;;;;;;;;;;19.44;63.86;100869.53;4970178;28;2352;-94
2022/06/27 07:47:39;;;;;;;;;;;;;;;19.44;63.91;100875.00;4985983;28;2361;-94
2022/06/27 07:50:06;;;;;;;;;;;;;;;19.44;63.76;100878.59;4969495;28;2035;-93
2022/06/27 07:53:11;;;;;;;;;;;;;;;19.43;63.68;100882.38;4971680;28;2032;-93
2022/06/27 07:55:19;;;;;;;;;;;;;;;19.45;63.49;100873.94;4983562;28;2138;-94
2022/06/27 07:57:47;;;;;;;;;;;;;;;19.44;63.42;100870.41;4970280;28;2289;-91
2022/06/27 08:00:13;;;;;;;;;;;;;;;19.44;63.76;100861.34;4977783;28;2293;-92
2022/06/27 08:02:40;;;;;;;;;;;;;;;19.44;63.97;100864.94;4978097;28;1771;-91
2022/06/27 08:05:07;;;;;;;;;;;;;;;19.44;63.71;100859.47;4978465;28;1268;-92
2022/06/27 08:07:33;;;;;;;;;;;;;;;19.43;63.88;100849.63;4992425;28;1955;-92
2022/06/27 08:09:59;;;;;;;;;;;;;;;19.44;63.51;100832.16;4994352;28;2004;-91
2022/06/27 08:12:26;;;;;;;;;;;;;;;19.44;63.58;100826.69;4977525;28;1800;-92
2022/06/27 08:14:52;;;;;;;;;;;;;;;19.45;63.70;100824.78;4978319;28;1917;-92
2022/06/27 08:17:19;;;;;;;;;;;;;;;19.45;63.81;100822.84;4972710;28;2047;-92
2022/06/27 08:19:46;;;;;;;;;;;;;;;19.45;63.70;100822.03;4992758;28;2359;-92
2022/06/27 08:22:12;;;;;;;;;;;;;;;19.44;63.55;100817.66;4978975;28;1888;-93
2022/06/27 08:24:39;;;;;;;;;;;;;;;19.44;63.80;100814.91;4994890;28;1297;-93
2022/06/27 08:27:07;;;;;;;;;;;;;;;19.45;63.80;100819.31;4978673;28;1194;-93
2022/06/27 08:29:34;;;;;;;;;;;;;;;19.44;63.89;100821.22;4978535;28;1981;-93
2022/06/27 08:32:00;;;;;;;;;;;;;;;19.43;63.65;100808.66;4977815;28;1865;-93
2022/06/27 08:34:27;;;;;;;;;;;;;;;19.44;63.59;100813.03;4978680;28;1205;-93
2022/06/27 08:36:54;;;;;;;;;;;;;;;19.45;63.76;100808.38;4978136;28;1928;-93
2022/06/27 08:39:21;;;;;;;;;;;;;;;19.44;63.52;100810.31;4970956;28;1871;-93
2022/06/27 08:41:47;;;;;;;;;;;;;;;19.44;63.66;100821.22;4965757;28;1163;-93
2022/06/27 08:44:14;;;;;;;;;;;;;;;19.45;63.51;100822.84;4974306;28;2711;-92
2022/06/27 08:46:46;;;;;;;;;;;;;;;19.45;63.55;100830.25;4976088;28;1861;-93
2022/06/27 08:49:14;;;;;;;;;;;;;;;19.45;63.44;100836.50;4978578;28;1965;-92
2022/06/27 08:51:40;;;;;;;;;;;;;;;19.44;63.91;100837.63;4978478;28;1236;-92
2022/06/27 08:54:06;;;;;;;;;;;;;;;19.45;63.67;100827.50;4969641;28;1928;-92
2022/06/27 08:56:33;;;;;;;;;;;;;;;19.44;63.66;100823.13;4978133;28;1763;-91
2022/06/27 08:59:00;;;;;;;;;;;;;;;19.43;63.89;100816.84;4995489;28;1380;-92
2022/06/27 09:01:27;;;;;;;;;;;;;;;19.44;63.94;100812.19;4977306;28;1794;-92
2022/06/27 09:03:56;;;;;;;;;;;;;;;19.43;63.53;100799.63;4976332;28;1905;-92
2022/06/27 09:06:22;;;;;;;;;;;;;;;19.43;63.63;100796.91;4977493;28;1857;-93
2022/06/27 09:08:49;;;;;;;;;;;;;;;19.43;63.57;100778.59;4976678;28;2087;-92
2022/06/27 09:11:16;;;;;;;;;;;;;;;19.43;63.61;100756.75;4978007;28;1983;-93
2022/06/27 09:13:42;;;;;;;;;;;;;;;19.43;64.00;100751.28;4978207;28;1163;-91
2022/06/27 09:16:09;;;;;;;;;;;;;;;19.42;63.84;100736.00;4977758;28;1304;-92
2022/06/27 09:18:36;;;;;;;;;;;;;;;19.43;63.77;100739.56;4975332;28;1889;-92
2022/06/27 09:21:03;;;;;;;;;;;;;;;19.44;63.76;100733.00;4967412;28;1779;-92
2022/06/27 09:23:29;;;;;;;;;;;;;;;19.43;63.84;100734.91;4970033;28;1884;-91
2022/06/27 09:25:55;;;;;;;;;;;;;;;19.43;63.68;100745.00;4978945;28;1190;-92
2022/06/27 09:28:23;;;;;;;;;;;;;;;19.43;63.61;100734.91;4976434;28;1234;-92
2022/06/27 09:30:52;;;;;;;;;;;;;;;19.44;63.67;100738.44;4981384;28;1920;-92
2022/06/27 09:33:18;;;;;;;;;;;;;;;19.44;63.56;100735.72;4982235;28;1332;-92
2022/06/27 09:35:46;;;;;;;;;;;;;;;19.44;63.78;100733.00;4980967;28;1917;-92
2022/06/27 09:38:13;;;;;;;;;;;;;;;19.43;63.75;100731.38;4977909;28;2023;-92
2022/06/27 09:40:41;;;;;;;;;;;;;;;19.43;63.59;100732.19;4982141;28;1367;-91
2022/06/27 09:43:07;;;;;;;;;;;;;;;19.44;63.66;100733.00;4981377;28;1217;-92
2022/06/27 09:45:33;;;;;;;;;;;;;;;19.43;63.79;100729.44;4979924;28;1967;-92
2022/06/27 09:48:01;;;;;;;;;;;;;;;19.44;63.74;100727.53;4978683;28;1240;-92
2022/06/27 09:50:28;;;;;;;;;;;;;;;19.43;63.59;100715.78;4970492;28;1891;-92
2022/06/27 09:52:54;;;;;;;;;;;;;;;19.42;63.90;100697.78;4981181;28;1233;-92
2022/06/27 09:55:20;;;;;;;;;;;;;;;19.44;63.99;100683.81;4982126;28;2169;-92
2022/06/27 09:57:46;;;;;;;;;;;;;;;19.43;63.96;100684.94;4997698;28;1817;-93
2022/06/27 10:00:13;;;;;;;;;;;;;;;19.43;63.78;100685.75;4978235;28;1380;-92
2022/06/27 10:02:40;;;;;;;;;;;;;;;19.44;63.58;100687.41;4981373;28;1356;-92
2022/06/27 10:05:06;;;;;;;;;;;;;;;19.43;63.69;100702.13;4980964;28;1626;-92
2022/06/27 10:07:34;;;;;;;;;;;;;;;19.45;63.70;100721.00;4980662;28;2154;-92
2022/06/27 10:10:00;;;;;;;;;;;;;;;19.44;64.05;100768.50;4980295;28;2032;-92
2022/06/27 10:12:27;;;;;;;;;;;;;;;19.43;63.94;100783.25;4980474;28;1917;-91
2022/06/27 10:14:53;;;;;;;;;;;;;;;19.42;64.27;100806.19;4970171;28;2058;-91
2022/06/27 10:17:23;;;;;;;;;;;;;;;19.44;63.94;100804.00;4980254;28;1734;-91
2022/06/27 10:19:49;;;;;;;;;;;;;;;19.43;nan;100754.03;4981155;28;1233;-91
2022/06/27 10:22:16;;;;;;;;;;;;;;;19.43;63.91;100750.47;4981029;28;1110;-91
2022/06/27 10:24:42;;;;;;;;;;;;;;;19.45;63.84;100753.75;4972245;28;3045;-91
2022/06/27 10:27:08;;;;;;;;;;;;;;;19.44;63.81;100750.22;4980138;28;1181;-91
2022/06/27 10:29:37;;;;;;;;;;;;;;;19.43;64.06;100740.38;4983130;28;1923;-92
2022/06/27 10:32:04;;;;;;;;;;;;;;;19.45;64.01;100743.66;4977981;28;2106;-91
2022/06/27 10:34:30;;;;;;;;;;;;;;;19.44;63.78;100746.66;4978510;28;1173;-91
2022/06/27 10:36:56;;;;;;;;;;;;;;;19.44;64.04;100749.38;4997042;28;1024;-93
2022/06/27 10:39:23;;;;;;;;;;;;;;;19.45;63.76;100749.13;4979634;28;1979;-92
2022/06/27 10:41:49;;;;;;;;;;;;;;;19.45;64.11;100753.75;4980446;28;1206;-92
2022/06/27 10:44:16;;;;;;;;;;;;;;;19.45;63.87;100753.75;4980633;28;1222;-92
2022/06/27 10:46:42;;;;;;;;;;;;;;;19.45;63.86;100746.38;4980399;28;1290;-92
2022/06/27 10:49:09;;;;;;;;;;;;;;;19.45;63.87;100737.38;4993368;28;2019;-93
2022/06/27 10:51:35;;;;;;;;;;;;;;;19.44;63.96;100739.28;4980419;28;1989;-92
2022/06/27 10:54:02;;;;;;;;;;;;;;;19.45;64.08;100735.47;4993220;28;1935;-91
2022/06/27 10:56:29;;;;;;;;;;;;;;;19.45;64.10;100734.66;4973197;28;1877;-91
2022/06/27 10:58:55;;;;;;;;;;;;;;;19.45;64.04;100731.91;4967127;28;1992;-92
2022/06/27 11:01:22;;;;;;;;;;;;;;;19.45;64.07;100743.66;4984264;28;2031;-92
2022/06/27 11:03:49;;;;;;;;;;;;;;;19.44;63.82;100738.44;4968621;28;1928;-91
2022/06/27 11:06:15;;;;;;;;;;;;;;;19.45;64.11;100737.38;4969227;28;2304;-92
2022/06/27 11:08:41;;;;;;;;;;;;;;;19.45;64.18;100731.91;4981771;28;2067;-91
2022/06/27 11:11:08;;;;;;;;;;;;;;;19.44;63.85;100733.84;4983214;28;2043;-91
2022/06/27 11:13:34;;;;;;;;;;;;;;;19.44;64.24;100736.56;4969516;28;2246;-92
2022/06/27 11:16:01;;;;;;;;;;;;;;;19.45;64.01;100729.19;4969782;28;2067;-92
2022/06/27 11:18:27;;;;;;;;;;;;;;;19.45;63.90;100726.44;4980119;28;2082;-92
2022/06/27 11:20:53;;;;;;;;;;;;;;;19.45;64.10;100731.91;4968760;28;2114;-92
2022/06/27 11:23:20;;;;;;;;;;;;;;;19.45;64.11;100731.91;4978344;28;1801;-92
2022/06/27 11:25:46;;;;;;;;;;;;;;;19.46;64.26;100736.28;4984537;28;2213;-92
2022/06/27 11:33:41;;;;;;;;;;;;;;;19.44;64.12;100747.50;4976331;28;2161;-92
2022/06/27 11:36:07;;;;;;;;;;;;;;;19.45;64.24;100751.84;4966559;28;2247;-92
2022/06/27 11:38:33;;;;;;;;;;;;;;;19.45;64.35;100745.56;4966274;28;2418;-92
2022/06/27 11:41:00;;;;;;;;;;;;;;;19.45;64.14;100749.13;4966479;28;2197;-92
2022/06/27 11:43:26;;;;;;;;;;;;;;;19.46;64.22;100755.41;4968119;28;2980;-92
2022/06/27 11:45:53;;;;;;;;;;;;;;;19.46;64.03;100749.94;4970105;28;1263;-92
2022/06/27 11:48:19;;;;;;;;;;;;;;;19.45;64.10;100743.66;4976235;28;1920;-92
2022/06/27 11:50:45;;;;;;;;;;;;;;;19.45;64.27;100737.38;4984243;28;2046;-92
2022/06/27 11:53:12;;;;;;;;;;;;;;;19.45;64.36;100729.19;4966994;28;2056;-92
2022/06/27 11:55:38;;;;;;;;;;;;;;;19.45;64.35;100738.19;4967535;28;2345;-92
2022/06/27 11:58:04;;;;;;;;;;;;;;;19.46;64.29;100739.81;4969562;28;2064;-92
2022/06/27 12:00:31;;;;;;;;;;;;;;;19.45;64.00;100732.72;4971454;28;2265;-92
2022/06/27 12:02:57;;;;;;;;;;;;;;;19.45;64.40;100735.47;4980554;28;2060;-92
2022/06/27 12:05:23;;;;;;;;;;;;;;;19.45;64.49;100724.53;4969505;28;2092;-92
2022/06/27 12:07:50;;;;;;;;;;;;;;;19.45;64.08;100727.25;4971441;28;2337;-91
2022/06/27 12:10:16;;;;;;;;;;;;;;;19.46;64.31;100717.16;4965087;28;2020;-92
2022/06/27 12:12:43;;;;;;;;;;;;;;;19.46;64.16;100728.06;4966810;28;2004;-93
2022/06/27 12:15:09;;;;;;;;;;;;;;;19.46;64.21;100728.06;4978802;28;2031;-92
2022/06/27 12:17:35;;;;;;;;;;;;;;;19.45;64.19;100731.91;4984963;28;1923;-92
2022/06/27 12:20:03;;;;;;;;;;;;;;;19.46;64.49;100737.09;4988578;28;1983;-90
2022/06/27 12:22:29;;;;;;;;;;;;;;;19.44;64.52;100733.84;4981840;28;2351;-91
2022/06/27 12:24:55;;;;;;;;;;;;;;;19.45;64.40;100726.44;4967087;28;2229;-92
2022/06/27 12:27:22;;;;;;;;;;;;;;;19.47;64.38;100721.50;4965980;28;2969;-92
2022/06/27 12:29:48;;;;;;;;;;;;;;;19.45;64.17;100721.81;4967320;28;2301;-91
2022/06/27 12:32:15;;;;;;;;;;;;;;;19.45;64.44;100731.91;4970546;28;2253;-91
2022/06/27 12:34:41;;;;;;;;;;;;;;;19.45;64.57;100734.66;4966624;28;2943;-92
2022/06/27 12:37:07;;;;;;;;;;;;;;;19.45;64.39;100721.81;4969294;28;2091;-91
2022/06/27 12:39:34;;;;;;;;;;;;;;;19.45;64.38;100713.59;4967055;28;1991;-91
2022/06/27 12:42:00;;;;;;;;;;;;;;;19.45;64.37;100721.00;4968657;28;2057;-91
2022/06/27 12:44:27;;;;;;;;;;;;;;;19.45;64.43;100727.25;4984750;28;2245;-92
2022/06/27 12:46:53;;;;;;;;;;;;;;;19.45;64.30;100721.00;4967795;28;2335;-92
2022/06/27 12:49:20;;;;;;;;;;;;;;;19.45;64.24;100716.34;4977555;28;1624;-92